Senhora Da Saude — CUBU9 — position and weather

sailwx.info

Track history (hours):
 
Tides and Currents Weather Stations Pressure Air Temp Water Temp Dewpoint Dewpoint Depression Visibility Wind Speed Wind Dir Waves Ship Positions

Senhora Da Saude

Last reported at 2017-Sep-05 19:10 UTC. Time now 2017-Sep-21 09:04 UTC.
Position N 39°21' W 009°22'.
Warning: this ship's position is 15 days out of date.

Length 18 m.

Type: Fishing. MMSI: 204278000.

Date/timePositionNaut miles runAvg speedWind from/ knotsBaromVisibWave heightAir tempDewpointWater temp
2017-Sep-05 19:10N 39°21' W 009°22'0 0.0
2017-Sep-05 18:47N 39°21' W 009°22'0 0.0
2017-Sep-05 18:25N 39°21' W 009°22'0 0.0
2017-Sep-05 17:59N 39°21' W 009°22'0 0.0
2017-Sep-05 17:30N 39°21' W 009°22'0 0.0
2017-Sep-05 16:53N 39°21' W 009°22'0 0.0
2017-Sep-05 16:24N 39°21' W 009°22'0 0.0
2017-Sep-05 15:30N 39°21' W 009°22'0 0.0
2017-Sep-05 14:53N 39°21' W 009°22'0 0.0
2017-Sep-05 14:28N 39°21' W 009°22'0 0.0
2017-Sep-05 13:55N 39°21' W 009°22'0 0.0
2017-Sep-05 13:30N 39°21' W 009°22'0 0.0
2017-Sep-05 12:54N 39°21' W 009°22'0 0.0
2017-Sep-05 12:30N 39°21' W 009°22'0 0.0
2017-Sep-05 11:59N 39°21' W 009°22'0 0.0
2017-Sep-05 11:30N 39°21' W 009°22'0 0.0
2017-Sep-05 11:00N 39°21' W 009°22'0 0.0
2017-Sep-05 10:30N 39°21' W 009°22'0 0.0
2017-Sep-05 10:00N 39°21' W 009°22'0 0.0
2017-Sep-05 09:02N 39°21' W 009°22'0 0.0
2017-Sep-05 09:00N 39°21' W 009°22'0 0.0
2017-Sep-05 07:56N 39°21' W 009°22'0 0.0
2017-Sep-05 07:30N 39°21' W 009°22'0 0.0
2017-Sep-05 07:00N 39°21' W 009°22'0 0.0
2017-Sep-05 06:30N 39°21' W 009°22'0 0.0
2017-Sep-05 00:44N 39°21' W 009°22'0 0.0
2017-Sep-05 00:26N 39°21' W 009°22'1 0.1
2017-Sep-04 15:41N 39°21' W 009°23'1 6.6
2017-Sep-04 15:30N 39°21' W 009°24'3 5.9
2017-Sep-04 15:00N 39°24' W 009°25'3 7.0
2017-Sep-04 14:30N 39°28' W 009°25'5 1.0
2017-Sep-04 09:45N 39°26' W 009°30'2 6.7
2017-Sep-04 09:30N 39°26' W 009°32'1 2.8
2017-Sep-04 09:00N 39°25' W 009°34'1 1.2
2017-Sep-04 08:30N 39°25' W 009°35'1 1.0
2017-Sep-04 07:56N 39°25' W 009°36'1 1.2
2017-Sep-04 07:25N 39°25' W 009°35'10 0.8
2017-Sep-03 18:23N 39°21' W 009°22'2 5.4
2017-Sep-03 17:56N 39°23' W 009°25'3 7.2
2017-Sep-03 17:30N 39°26' W 009°24'4 7.2
2017-Sep-03 17:00N 39°29' W 009°24'4 7.3
2017-Sep-03 16:25N 39°34' W 009°23'4 3.0
2017-Sep-03 15:07N 39°38' W 009°23'0 0.9
2017-Sep-03 14:43N 39°38' W 009°23'0 0.2
2017-Sep-03 13:12N 39°38' W 009°23'1 1.4
2017-Sep-03 12:43N 39°37' W 009°23'1 1.5
2017-Sep-03 12:22N 39°37' W 009°22'2 4.4
2017-Sep-03 11:52N 39°35' W 009°24'3 7.1
2017-Sep-03 11:30N 39°33' W 009°26'12 6.3
2017-Sep-03 09:37N 39°22' W 009°33'0 0.7
2017-Sep-03 09:26N 39°23' W 009°33'0 0.4
2017-Sep-03 08:30N 39°22' W 009°33'0 0.5
2017-Sep-03 08:00N 39°23' W 009°33'0 0.6
2017-Sep-03 07:30N 39°23' W 009°33'1 0.9
2017-Sep-03 06:57N 39°23' W 009°33'2 4.9
2017-Sep-03 06:30N 39°25' W 009°34'0 0.5
2017-Sep-03 05:48N 39°26' W 009°34'2 7.4
2017-Sep-03 05:29N 39°27' W 009°32'9 1.8
2017-Sep-03 00:26N 39°21' W 009°23'1 0.1
2017-Sep-02 16:37N 39°21' W 009°22'1 5.2
2017-Sep-02 16:30N 39°21' W 009°23'3 5.4
2017-Sep-02 16:00N 39°23' W 009°24'3 6.7
2017-Sep-02 15:30N 39°27' W 009°24'4 7.0
2017-Sep-02 15:00N 39°30' W 009°23'3 6.8
2017-Sep-02 14:30N 39°33' W 009°22'3 6.4
2017-Sep-02 14:00N 39°37' W 009°22'0 0.8
2017-Sep-02 13:30N 39°37' W 009°23'0 0.9
2017-Sep-02 13:00N 39°37' W 009°23'0 1.0
2017-Sep-02 12:30N 39°38' W 009°23'1 1.0
2017-Sep-02 12:00N 39°38' W 009°23'0 0.3
2017-Sep-02 11:30N 39°38' W 009°23'1 1.1
2017-Sep-02 10:59N 39°38' W 009°23'1 1.4
2017-Sep-02 10:30N 39°37' W 009°23'5 4.0
2017-Sep-02 09:16N 39°32' W 009°25'0 0.6
2017-Sep-02 09:00N 39°32' W 009°25'1 1.1
2017-Sep-02 08:30N 39°32' W 009°25'0 0.2
2017-Sep-02 08:00N 39°32' W 009°25'1 1.1
2017-Sep-02 07:30N 39°32' W 009°25'0 0.3
2017-Sep-02 07:00N 39°33' W 009°25'0 0.9
2017-Sep-02 06:30N 39°32' W 009°25'1 2.4
2017-Sep-02 06:00N 39°33' W 009°25'1 0.8
2017-Sep-02 05:19N 39°33' W 009°24'1 3.8
2017-Sep-02 05:00N 39°34' W 009°24'13 0.8
2017-Sep-01 13:06N 39°21' W 009°22'0 0.0
2017-Sep-01 13:00N 39°21' W 009°22'0 0.0
2017-Aug-31 16:41N 39°21' W 009°22'0 0.3
2017-Aug-31 16:15N 39°21' W 009°22'11 6.0
2017-Aug-31 14:21N 39°33' W 009°24'12 0.6
2017-Aug-30 17:01N 39°21' W 009°22'0 5.5
2017-Aug-30 16:59N 39°21' W 009°23'0 0.0
2017-Aug-29 16:59N 39°21' W 009°23'4 7.3
2017-Aug-29 16:30N 39°22' W 009°27'4 6.9
2017-Aug-29 15:52N 39°23' W 009°33'1 0.2
2017-Aug-29 11:08N 39°23' W 009°34'0 0.5
2017-Aug-29 10:57N 39°23' W 009°34'0 0.4
2017-Aug-29 10:30N 39°23' W 009°34'0 0.8
2017-Aug-29 10:00N 39°23' W 009°34'0 0.8
2017-Aug-29 09:30N 39°23' W 009°34'1 2.6
2017-Aug-29 08:59N 39°22' W 009°33'1 1.3
2017-Aug-29 08:30N 39°23' W 009°32'0 0.9
2017-Aug-29 08:00N 39°22' W 009°33'0 0.4
2017-Aug-29 07:29N 39°23' W 009°33'0 0.7
2017-Aug-29 07:00N 39°23' W 009°33'0 0.9
2017-Aug-29 06:30N 39°23' W 009°33'0 0.2
2017-Aug-29 06:00N 39°24' W 009°33'1 2.6
2017-Aug-29 05:29N 39°23' W 009°34'0 0.6
2017-Aug-29 04:58N 39°23' W 009°34'1 0.8
2017-Aug-29 03:43N 39°24' W 009°33'6 3.2
2017-Aug-29 01:57N 39°21' W 009°27'2 5.3
2017-Aug-29 01:30N 39°21' W 009°24'1 0.1
2017-Aug-28 15:44N 39°21' W 009°22'0 0.4
2017-Aug-28 15:30N 39°21' W 009°22'1 1.4
2017-Aug-28 15:00N 39°21' W 009°23'3 6.7
2017-Aug-28 14:30N 39°24' W 009°25'4 7.6
2017-Aug-28 14:00N 39°28' W 009°25'7 0.4
2017-Aug-27 18:37N 39°21' W 009°22'1 6.6
2017-Aug-27 18:26N 39°21' W 009°24'14 4.3
2017-Aug-27 15:07N 39°35' W 009°28'  
Track history (hours):
 
Tides and Currents Weather Stations Pressure Air Temp Water Temp Dewpoint Dewpoint Depression Visibility Wind Speed Wind Dir Waves Ship Positions

Senhora Da Saude

Last reported at 2017-Sep-05 19:10 UTC. Time now 2017-Sep-21 09:04 UTC.
Position N 39°21' W 009°22'.
Warning: this ship's position is 15 days out of date.

Length 18 m.

Type: Fishing. MMSI: 204278000.

Date/timePositionNaut miles runAvg speedWind from/ knotsBaromVisibWave heightAir tempDewpointWater temp
2017-Sep-05 19:10N 39°21' W 009°22'0 0.0
2017-Sep-05 18:47N 39°21' W 009°22'0 0.0
2017-Sep-05 18:25N 39°21' W 009°22'0 0.0
2017-Sep-05 17:59N 39°21' W 009°22'0 0.0
2017-Sep-05 17:30N 39°21' W 009°22'0 0.0
2017-Sep-05 16:53N 39°21' W 009°22'0 0.0
2017-Sep-05 16:24N 39°21' W 009°22'0 0.0
2017-Sep-05 15:30N 39°21' W 009°22'0 0.0
2017-Sep-05 14:53N 39°21' W 009°22'0 0.0
2017-Sep-05 14:28N 39°21' W 009°22'0 0.0
2017-Sep-05 13:55N 39°21' W 009°22'0 0.0
2017-Sep-05 13:30N 39°21' W 009°22'0 0.0
2017-Sep-05 12:54N 39°21' W 009°22'0 0.0
2017-Sep-05 12:30N 39°21' W 009°22'0 0.0
2017-Sep-05 11:59N 39°21' W 009°22'0 0.0
2017-Sep-05 11:30N 39°21' W 009°22'0 0.0
2017-Sep-05 11:00N 39°21' W 009°22'0 0.0
2017-Sep-05 10:30N 39°21' W 009°22'0 0.0
2017-Sep-05 10:00N 39°21' W 009°22'0 0.0
2017-Sep-05 09:02N 39°21' W 009°22'0 0.0
2017-Sep-05 09:00N 39°21' W 009°22'0 0.0
2017-Sep-05 07:56N 39°21' W 009°22'0 0.0
2017-Sep-05 07:30N 39°21' W 009°22'0 0.0
2017-Sep-05 07:00N 39°21' W 009°22'0 0.0
2017-Sep-05 06:30N 39°21' W 009°22'0 0.0
2017-Sep-05 00:44N 39°21' W 009°22'0 0.0
2017-Sep-05 00:26N 39°21' W 009°22'1 0.1
2017-Sep-04 15:41N 39°21' W 009°23'1 6.6
2017-Sep-04 15:30N 39°21' W 009°24'3 5.9
2017-Sep-04 15:00N 39°24' W 009°25'3 7.0
2017-Sep-04 14:30N 39°28' W 009°25'5 1.0
2017-Sep-04 09:45N 39°26' W 009°30'2 6.7
2017-Sep-04 09:30N 39°26' W 009°32'1 2.8
2017-Sep-04 09:00N 39°25' W 009°34'1 1.2
2017-Sep-04 08:30N 39°25' W 009°35'1 1.0
2017-Sep-04 07:56N 39°25' W 009°36'1 1.2
2017-Sep-04 07:25N 39°25' W 009°35'10 0.8
2017-Sep-03 18:23N 39°21' W 009°22'2 5.4
2017-Sep-03 17:56N 39°23' W 009°25'3 7.2
2017-Sep-03 17:30N 39°26' W 009°24'4 7.2
2017-Sep-03 17:00N 39°29' W 009°24'4 7.3
2017-Sep-03 16:25N 39°34' W 009°23'4 3.0
2017-Sep-03 15:07N 39°38' W 009°23'0 0.9
2017-Sep-03 14:43N 39°38' W 009°23'0 0.2
2017-Sep-03 13:12N 39°38' W 009°23'1 1.4
2017-Sep-03 12:43N 39°37' W 009°23'1 1.5
2017-Sep-03 12:22N 39°37' W 009°22'2 4.4
2017-Sep-03 11:52N 39°35' W 009°24'3 7.1
2017-Sep-03 11:30N 39°33' W 009°26'12 6.3
2017-Sep-03 09:37N 39°22' W 009°33'0 0.7
2017-Sep-03 09:26N 39°23' W 009°33'0 0.4
2017-Sep-03 08:30N 39°22' W 009°33'0 0.5
2017-Sep-03 08:00N 39°23' W 009°33'0 0.6
2017-Sep-03 07:30N 39°23' W 009°33'1 0.9
2017-Sep-03 06:57N 39°23' W 009°33'2 4.9
2017-Sep-03 06:30N 39°25' W 009°34'0 0.5
2017-Sep-03 05:48N 39°26' W 009°34'2 7.4
2017-Sep-03 05:29N 39°27' W 009°32'9 1.8
2017-Sep-03 00:26N 39°21' W 009°23'1 0.1
2017-Sep-02 16:37N 39°21' W 009°22'1 5.2
2017-Sep-02 16:30N 39°21' W 009°23'3 5.4
2017-Sep-02 16:00N 39°23' W 009°24'3 6.7
2017-Sep-02 15:30N 39°27' W 009°24'4 7.0
2017-Sep-02 15:00N 39°30' W 009°23'3 6.8
2017-Sep-02 14:30N 39°33' W 009°22'3 6.4
2017-Sep-02 14:00N 39°37' W 009°22'0 0.8
2017-Sep-02 13:30N 39°37' W 009°23'0 0.9
2017-Sep-02 13:00N 39°37' W 009°23'0 1.0
2017-Sep-02 12:30N 39°38' W 009°23'1 1.0
2017-Sep-02 12:00N 39°38' W 009°23'0 0.3
2017-Sep-02 11:30N 39°38' W 009°23'1 1.1
2017-Sep-02 10:59N 39°38' W 009°23'1 1.4
2017-Sep-02 10:30N 39°37' W 009°23'5 4.0
2017-Sep-02 09:16N 39°32' W 009°25'0 0.6
2017-Sep-02 09:00N 39°32' W 009°25'1 1.1
2017-Sep-02 08:30N 39°32' W 009°25'0 0.2
2017-Sep-02 08:00N 39°32' W 009°25'1 1.1
2017-Sep-02 07:30N 39°32' W 009°25'0 0.3
2017-Sep-02 07:00N 39°33' W 009°25'0 0.9
2017-Sep-02 06:30N 39°32' W 009°25'1 2.4
2017-Sep-02 06:00N 39°33' W 009°25'1 0.8
2017-Sep-02 05:19N 39°33' W 009°24'1 3.8
2017-Sep-02 05:00N 39°34' W 009°24'13 0.8
2017-Sep-01 13:06N 39°21' W 009°22'0 0.0
2017-Sep-01 13:00N 39°21' W 009°22'0 0.0
2017-Aug-31 16:41N 39°21' W 009°22'0 0.3
2017-Aug-31 16:15N 39°21' W 009°22'11 6.0
2017-Aug-31 14:21N 39°33' W 009°24'12 0.6
2017-Aug-30 17:01N 39°21' W 009°22'0 5.5
2017-Aug-30 16:59N 39°21' W 009°23'0 0.0
2017-Aug-29 16:59N 39°21' W 009°23'4 7.3
2017-Aug-29 16:30N 39°22' W 009°27'4 6.9
2017-Aug-29 15:52N 39°23' W 009°33'1 0.2
2017-Aug-29 11:08N 39°23' W 009°34'0 0.5
2017-Aug-29 10:57N 39°23' W 009°34'0 0.4
2017-Aug-29 10:30N 39°23' W 009°34'0 0.8
2017-Aug-29 10:00N 39°23' W 009°34'0 0.8
2017-Aug-29 09:30N 39°23' W 009°34'1 2.6
2017-Aug-29 08:59N 39°22' W 009°33'1 1.3
2017-Aug-29 08:30N 39°23' W 009°32'0 0.9
2017-Aug-29 08:00N 39°22' W 009°33'0 0.4
2017-Aug-29 07:29N 39°23' W 009°33'0 0.7
2017-Aug-29 07:00N 39°23' W 009°33'0 0.9
2017-Aug-29 06:30N 39°23' W 009°33'0 0.2
2017-Aug-29 06:00N 39°24' W 009°33'1 2.6
2017-Aug-29 05:29N 39°23' W 009°34'0 0.6
2017-Aug-29 04:58N 39°23' W 009°34'1 0.8
2017-Aug-29 03:43N 39°24' W 009°33'6 3.2
2017-Aug-29 01:57N 39°21' W 009°27'2 5.3
2017-Aug-29 01:30N 39°21' W 009°24'1 0.1
2017-Aug-28 15:44N 39°21' W 009°22'0 0.4
2017-Aug-28 15:30N 39°21' W 009°22'1 1.4
2017-Aug-28 15:00N 39°21' W 009°23'3 6.7
2017-Aug-28 14:30N 39°24' W 009°25'4 7.6
2017-Aug-28 14:00N 39°28' W 009°25'7 0.4
2017-Aug-27 18:37N 39°21' W 009°22'1 6.6
2017-Aug-27 18:26N 39°21' W 009°24'14 4.3
2017-Aug-27 15:07N 39°35' W 009°28'  

Dump ship's entire track history